createdAt,value
2022-12-23T00:01:25.576Z,10.68
2022-12-23T00:03:56.628Z,10.50
2022-12-23T00:06:23.835Z,10.40
2022-12-23T00:08:58.068Z,10.43
2022-12-23T00:11:27.379Z,9.52
2022-12-23T00:14:20.453Z,10.25
2022-12-23T00:17:33.814Z,10.25
2022-12-23T00:20:01.434Z,9.90
2022-12-23T00:22:47.521Z,9.55
2022-12-23T00:25:14.758Z,9.93
2022-12-23T00:27:41.834Z,9.70
2022-12-23T00:30:10.994Z,10.10
2022-12-23T00:32:38.075Z,8.98
2022-12-23T00:35:25.673Z,9.15
2022-12-23T00:38:02.400Z,8.75
2022-12-23T00:40:48.883Z,9.68
2022-12-23T00:43:36.437Z,9.63
2022-12-23T00:46:06.688Z,10.05
2022-12-23T00:49:01.895Z,8.75
2022-12-23T00:51:36.531Z,8.57
2022-12-23T00:54:22.369Z,8.38
2022-12-23T00:56:55.178Z,8.15
2022-12-23T00:59:22.247Z,8.88
2022-12-23T01:02:08.393Z,7.93
2022-12-23T01:04:54.692Z,8.15
2022-12-23T01:07:23.164Z,6.82
2022-12-23T01:09:50.454Z,7.32
2022-12-23T01:12:17.892Z,7.30
2022-12-23T01:14:45.213Z,9.30
2022-12-23T01:17:12.411Z,7.18
2022-12-23T01:19:39.856Z,6.57
2022-12-23T01:22:06.899Z,6.95
2022-12-23T01:24:34.003Z,6.75
2022-12-23T01:27:01.432Z,6.22
2022-12-23T01:29:29.043Z,7.22
2022-12-23T01:31:56.306Z,7.68
2022-12-23T01:34:23.528Z,6.93
2022-12-23T01:36:50.782Z,6.80
2022-12-23T01:39:18.043Z,7.00
2022-12-23T01:42:03.677Z,6.75
2022-12-23T01:44:56.666Z,5.82
2022-12-23T01:47:54.664Z,5.72
2022-12-23T01:50:32.698Z,5.60
2022-12-23T01:53:20.007Z,5.75
2022-12-23T01:55:59.230Z,5.03
2022-12-23T01:58:37.899Z,5.85
2022-12-23T02:01:24.973Z,7.47
2022-12-23T02:03:58.471Z,5.85
2022-12-23T02:06:53.539Z,5.35
2022-12-23T02:09:32.068Z,6.15
2022-12-23T02:12:13.139Z,6.18
2022-12-23T02:15:24.036Z,5.45
2022-12-23T02:18:43.393Z,6.38
2022-12-23T02:22:09.886Z,5.70
2022-12-23T02:26:00.744Z,6.55
2022-12-23T02:29:18.881Z,6.53
2022-12-23T02:32:09.315Z,5.93
2022-12-23T02:35:13.467Z,5.88
2022-12-23T02:38:26.231Z,5.65
2022-12-23T02:41:14.246Z,5.35
2022-12-23T02:43:55.340Z,3.20
2022-12-23T02:47:04.365Z,2.33
2022-12-23T02:49:41.028Z,2.10
2022-12-23T02:52:15.373Z,1.33
2022-12-23T02:54:50.180Z,1.50
2022-12-23T02:57:27.022Z,1.00
2022-12-23T02:59:57.342Z,0.95
2022-12-23T03:03:19.308Z,1.17
2022-12-23T03:07:19.307Z,0.98
2022-12-23T03:18:08.997Z,1.52
2022-12-23T03:20:56.955Z,0.73
2022-12-23T03:23:32.669Z,0.77
2022-12-23T03:26:16.850Z,0.45
2022-12-23T03:29:16.944Z,1.15
2022-12-23T03:31:46.225Z,0.75
2022-12-23T03:34:22.449Z,0.65
2022-12-23T03:36:57.845Z,1.05
2022-12-23T03:39:34.665Z,0.80
2022-12-23T03:47:12.503Z,0.45
2022-12-23T03:58:31.735Z,0.50
2022-12-23T04:01:19.465Z,0.63
2022-12-23T04:04:11.131Z,0.50
2022-12-23T04:07:15.775Z,0.50
2022-12-23T04:09:44.173Z,0.45
2022-12-23T04:12:13.140Z,0.40
2022-12-23T04:15:12.821Z,0.40
2022-12-23T04:18:28.064Z,0.20
2022-12-23T04:21:44.661Z,0.43
2022-12-23T04:24:30.574Z,0.40
2022-12-23T04:34:40.628Z,0.40
2022-12-23T04:37:07.668Z,0.35
2022-12-23T04:39:34.697Z,0.30
2022-12-23T04:42:01.768Z,0.35
2022-12-23T04:44:28.836Z,0.30
2022-12-23T04:46:56.189Z,0.52
2022-12-23T04:49:23.187Z,0.30
2022-12-23T04:52:05.319Z,0.30
2022-12-23T04:54:49.657Z,0.40
2022-12-23T04:57:28.730Z,0.50
2022-12-23T05:00:11.424Z,0.40
2022-12-23T05:02:49.581Z,0.30
2022-12-23T05:05:29.681Z,0.43
2022-12-23T05:08:18.003Z,0.40
2022-12-23T05:11:07.728Z,0.57
2022-12-23T05:14:25.989Z,0.50
2022-12-23T05:18:53.134Z,0.55
2022-12-23T05:31:52.666Z,0.40
2022-12-23T05:35:05.156Z,0.60
2022-12-23T05:37:57.885Z,0.70
2022-12-23T05:40:54.981Z,0.45
2022-12-23T05:44:31.227Z,0.70
2022-12-23T05:47:02.058Z,1.00
2022-12-23T05:49:29.225Z,0.57
2022-12-23T05:51:56.428Z,0.32
2022-12-23T05:54:23.469Z,0.43
2022-12-23T05:56:50.441Z,0.60
2022-12-23T05:59:17.537Z,0.50
2022-12-23T06:01:44.625Z,0.70
2022-12-23T06:04:11.892Z,1.65
2022-12-23T06:06:38.966Z,0.50
2022-12-23T06:25:26.487Z,0.63
2022-12-23T06:41:32.579Z,0.63
2022-12-23T06:43:59.625Z,0.60
2022-12-23T06:50:15.024Z,0.90
2022-12-23T06:53:12.291Z,0.55
2022-12-23T06:56:14.754Z,0.70
2022-12-23T06:59:08.792Z,0.57
2022-12-23T07:01:40.739Z,0.70
2022-12-23T07:04:07.881Z,0.60
2022-12-23T07:06:34.900Z,0.70
2022-12-23T07:09:01.958Z,0.77
2022-12-23T07:11:29.187Z,0.85
2022-12-23T07:13:57.319Z,0.88
2022-12-23T07:16:24.352Z,0.88
2022-12-23T07:19:11.858Z,0.93
2022-12-23T07:21:54.345Z,0.90
2022-12-23T07:25:15.901Z,0.65
2022-12-23T07:28:27.986Z,0.50
2022-12-23T07:31:21.396Z,0.80
2022-12-23T07:37:19.765Z,0.60
2022-12-23T07:39:46.859Z,0.70
2022-12-23T07:42:44.948Z,0.68
2022-12-23T07:45:30.719Z,0.70
2022-12-23T07:52:00.430Z,0.80
2022-12-23T07:54:56.733Z,0.70
2022-12-23T07:58:03.347Z,0.70
2022-12-23T08:00:47.149Z,0.70
2022-12-23T08:03:29.975Z,0.57
2022-12-23T08:06:31.738Z,0.45
2022-12-23T08:09:18.848Z,0.70
2022-12-23T08:12:36.674Z,0.70
2022-12-23T08:15:33.470Z,0.60
2022-12-23T08:21:59.242Z,0.40
2022-12-23T08:32:04.079Z,1.00
2022-12-23T08:34:31.443Z,0.80
2022-12-23T08:36:58.528Z,0.65
2022-12-23T08:39:26.018Z,0.60
2022-12-23T08:41:53.913Z,0.82
2022-12-23T08:44:21.844Z,0.70
2022-12-23T08:46:49.349Z,0.68
2022-12-23T08:49:16.595Z,0.60
2022-12-23T08:51:43.791Z,0.63
2022-12-23T08:54:10.972Z,0.52
2022-12-23T08:56:42.341Z,0.70
2022-12-23T08:59:19.649Z,0.80
2022-12-23T09:01:48.296Z,0.43
2022-12-23T09:04:15.872Z,0.80
2022-12-23T09:06:44.215Z,0.80
2022-12-23T09:09:24.772Z,0.70
2022-12-23T09:12:18.521Z,0.80
2022-12-23T09:14:48.470Z,0.68
2022-12-23T09:17:15.466Z,0.68
2022-12-23T09:19:44.852Z,0.77
2022-12-23T09:22:15.980Z,1.27
2022-12-23T09:24:43.031Z,0.65
2022-12-23T09:27:10.259Z,0.88
2022-12-23T09:29:37.236Z,0.80
2022-12-23T09:32:04.475Z,0.60
2022-12-23T09:34:31.689Z,0.73
2022-12-23T09:36:58.756Z,0.90
2022-12-23T09:39:25.762Z,0.40
2022-12-23T09:42:01.862Z,0.90
2022-12-23T09:44:52.561Z,0.63
2022-12-23T09:47:25.499Z,0.80
2022-12-23T09:50:25.673Z,0.70
2022-12-23T09:52:58.619Z,0.85
2022-12-23T09:55:40.119Z,0.70
2022-12-23T10:15:03.927Z,0.60
2022-12-23T10:17:41.636Z,0.70
2022-12-23T10:20:19.311Z,0.85
2022-12-23T10:22:47.505Z,0.77
2022-12-23T10:25:28.551Z,1.27
2022-12-23T10:37:16.924Z,0.73
2022-12-23T10:45:21.402Z,2.33
2022-12-23T10:52:49.206Z,0.88
2022-12-23T10:58:49.852Z,1.38
2022-12-23T11:01:26.643Z,2.38
2022-12-23T11:04:14.735Z,1.75
2022-12-23T11:06:52.861Z,1.00
2022-12-23T11:09:38.955Z,1.27
2022-12-23T11:12:51.921Z,3.25
2022-12-23T11:15:41.449Z,1.25
2022-12-23T11:18:11.679Z,1.15
2022-12-23T11:20:42.917Z,1.00
2022-12-23T11:23:33.073Z,1.30
2022-12-23T11:26:07.580Z,1.80
2022-12-23T11:28:40.121Z,1.27
2022-12-23T11:34:25.633Z,6.15
2022-12-23T11:37:03.705Z,1.30
2022-12-23T11:42:55.421Z,1.50
2022-12-23T11:45:38.145Z,1.02
2022-12-23T11:49:49.601Z,2.33
2022-12-23T11:55:32.884Z,0.93
2022-12-23T11:58:02.810Z,1.08
2022-12-23T12:00:42.137Z,1.50
2022-12-23T12:03:19.854Z,1.20
2022-12-23T12:05:53.450Z,0.80
2022-12-23T12:08:30.046Z,1.02
2022-12-23T12:26:29.742Z,1.13
2022-12-23T12:29:12.236Z,1.00
2022-12-23T12:31:55.204Z,7.18
2022-12-23T12:35:03.448Z,1.30
2022-12-23T12:37:43.474Z,1.00
2022-12-23T12:40:44.557Z,0.88
2022-12-23T12:43:37.908Z,0.90
2022-12-23T12:46:36.855Z,0.80
2022-12-23T12:49:26.671Z,1.10
2022-12-23T12:52:13.227Z,0.90
2022-12-23T12:54:56.286Z,1.00
2022-12-23T13:11:53.854Z,1.45
2022-12-23T13:14:59.448Z,1.00
2022-12-23T13:17:43.744Z,0.70
2022-12-23T13:20:42.703Z,1.20
2022-12-23T13:23:46.360Z,1.20
2022-12-23T13:26:39.173Z,1.13
2022-12-23T13:33:07.825Z,1.40
2022-12-23T13:36:05.814Z,1.30
2022-12-23T13:39:28.846Z,1.50
2022-12-23T13:42:05.713Z,1.10
2022-12-23T13:44:34.890Z,1.58
2022-12-23T13:47:18.465Z,1.30
2022-12-23T13:49:57.235Z,1.30
2022-12-23T13:52:57.244Z,1.15
2022-12-23T13:55:57.545Z,1.02
2022-12-23T13:58:31.311Z,1.20
2022-12-23T14:01:08.895Z,1.25
2022-12-23T14:03:39.867Z,1.17
2022-12-23T14:06:23.971Z,1.70
2022-12-23T14:08:53.896Z,1.88
2022-12-23T14:11:34.320Z,2.17
2022-12-23T14:14:06.132Z,1.98
2022-12-23T14:17:19.948Z,2.15
2022-12-23T14:20:26.078Z,2.00
2022-12-23T14:23:27.077Z,3.85
2022-12-23T14:26:19.064Z,7.18
2022-12-23T14:29:30.992Z,8.45
2022-12-23T14:31:58.859Z,5.63
2022-12-23T14:34:31.200Z,4.40
2022-12-23T14:37:24.254Z,3.00
2022-12-23T14:39:52.988Z,3.05
2022-12-23T14:42:42.692Z,2.40
2022-12-23T14:45:33.840Z,2.28
2022-12-23T14:48:04.151Z,2.20
2022-12-23T14:50:41.055Z,1.33
2022-12-23T14:53:24.860Z,1.80
2022-12-23T14:56:09.891Z,1.80
2022-12-23T14:58:46.145Z,1.80
2022-12-23T15:01:50.147Z,1.35
2022-12-23T15:04:28.544Z,1.65
2022-12-23T15:07:02.483Z,1.80
2022-12-23T15:09:37.680Z,1.40
2022-12-23T15:12:22.241Z,1.77
2022-12-23T15:15:06.893Z,2.13
2022-12-23T15:17:36.849Z,2.95
2022-12-23T15:20:22.776Z,1.85
2022-12-23T15:22:50.806Z,1.88
2022-12-23T15:25:30.520Z,1.83
2022-12-23T15:28:02.225Z,1.30
2022-12-23T15:30:46.066Z,1.67
2022-12-23T15:34:00.952Z,1.73
2022-12-23T15:36:10.729Z,3.05
2022-12-23T15:38:39.574Z,2.88
2022-12-23T15:41:16.485Z,2.13
2022-12-23T15:43:44.880Z,1.85
2022-12-23T15:46:29.692Z,1.50
2022-12-23T15:48:58.463Z,1.50
2022-12-23T15:52:05.881Z,1.33
2022-12-23T16:21:23.290Z,2.47
2022-12-23T16:23:53.123Z,3.50
2022-12-23T16:26:21.518Z,2.67
2022-12-23T16:28:53.939Z,2.72
2022-12-23T16:31:23.318Z,2.40
2022-12-23T16:33:51.929Z,3.10
2022-12-23T16:36:26.804Z,2.42
2022-12-23T16:39:22.163Z,2.70
2022-12-23T16:41:49.839Z,2.60
2022-12-23T16:44:21.686Z,2.88
2022-12-23T16:46:51.206Z,3.10
2022-12-23T16:49:24.445Z,2.50
2022-12-23T16:51:55.341Z,2.75
2022-12-23T16:54:25.520Z,2.63
2022-12-23T16:57:31.727Z,2.83
2022-12-23T17:00:03.029Z,3.08
2022-12-23T17:02:54.890Z,4.15
2022-12-23T17:05:37.367Z,3.53
2022-12-23T17:08:13.127Z,3.10
2022-12-23T17:11:00.691Z,2.55
2022-12-23T17:13:38.989Z,2.90
2022-12-23T17:16:41.403Z,2.78
2022-12-23T17:19:11.486Z,2.65
2022-12-23T17:21:41.956Z,3.03
2022-12-23T17:24:27.268Z,3.58
2022-12-23T17:26:56.795Z,3.42
2022-12-23T17:29:24.095Z,3.45
2022-12-23T17:31:51.973Z,3.67
2022-12-23T17:34:23.125Z,3.60
2022-12-23T17:36:51.121Z,6.15
2022-12-23T17:39:19.705Z,5.32
2022-12-23T17:41:47.763Z,5.05
2022-12-23T17:44:17.771Z,4.57
2022-12-23T17:47:14.850Z,3.97
2022-12-23T17:49:43.068Z,4.03
2022-12-23T17:52:39.327Z,3.92
2022-12-23T17:55:36.998Z,4.15
2022-12-23T17:58:50.881Z,3.95
2022-12-23T18:02:46.059Z,4.65
2022-12-23T18:05:57.416Z,4.28
2022-12-23T18:08:40.832Z,5.05
2022-12-23T18:11:41.527Z,5.68
2022-12-23T18:14:48.464Z,5.43
2022-12-23T18:17:22.508Z,4.93
2022-12-23T18:33:52.829Z,6.25
2022-12-23T18:36:33.946Z,5.72
2022-12-23T18:39:01.115Z,5.63
2022-12-23T18:41:28.269Z,6.15
2022-12-23T18:43:55.911Z,6.15
2022-12-23T18:46:23.480Z,7.03
2022-12-23T19:12:06.255Z,7.22
2022-12-23T19:15:07.393Z,7.60
2022-12-23T19:17:37.894Z,7.53
2022-12-23T19:20:11.449Z,7.55
2022-12-23T19:22:39.074Z,7.18
2022-12-23T19:25:08.128Z,8.50
2022-12-23T19:27:35.523Z,9.10
2022-12-23T19:30:04.356Z,8.60
2022-12-23T19:32:31.851Z,8.68
2022-12-23T19:34:58.867Z,9.20
2022-12-23T19:37:26.011Z,8.02
2022-12-23T19:39:53.032Z,8.10
2022-12-23T19:42:20.231Z,7.75
2022-12-23T19:44:47.772Z,7.30
2022-12-23T19:47:14.902Z,7.38
2022-12-23T19:49:42.000Z,7.63
2022-12-23T19:52:09.542Z,7.28
2022-12-23T19:54:36.564Z,7.03
2022-12-23T19:57:17.983Z,7.65
2022-12-23T19:59:49.058Z,8.20
2022-12-23T20:02:17.758Z,8.63
2022-12-23T20:04:45.004Z,8.13
2022-12-23T20:07:12.218Z,8.65
2022-12-23T20:09:39.338Z,9.18
2022-12-23T20:12:06.589Z,9.93
2022-12-23T20:15:09.700Z,9.13
2022-12-23T20:18:27.827Z,7.75
2022-12-23T20:25:17.460Z,9.10
2022-12-23T20:27:47.681Z,9.25
2022-12-23T20:30:14.797Z,8.45
2022-12-23T20:32:41.867Z,9.25
2022-12-23T20:35:09.121Z,8.77
2022-12-23T20:37:36.178Z,7.75
2022-12-23T20:40:07.440Z,8.10
2022-12-23T20:42:37.108Z,7.30
2022-12-23T20:45:04.634Z,7.93
2022-12-23T20:47:31.606Z,6.97
2022-12-23T20:49:58.659Z,7.07
2022-12-23T20:52:25.730Z,6.30
2022-12-23T20:54:52.674Z,6.05
2022-12-23T20:57:19.861Z,5.93
2022-12-23T20:59:46.866Z,5.43
2022-12-23T21:02:15.767Z,6.55
2022-12-23T21:04:43.192Z,5.63
2022-12-23T21:07:15.261Z,5.97
2022-12-23T21:10:41.820Z,5.68
2022-12-23T21:13:57.025Z,5.38
2022-12-23T21:17:25.288Z,6.03
2022-12-23T21:32:45.175Z,6.68
2022-12-23T21:35:12.820Z,7.22
2022-12-23T21:37:40.168Z,7.60
2022-12-23T21:54:53.688Z,7.80
2022-12-23T21:57:20.727Z,8.80
2022-12-23T21:59:47.746Z,8.57
2022-12-23T22:02:17.959Z,8.93
2022-12-23T22:04:45.128Z,8.35
2022-12-23T22:07:12.112Z,8.75
2022-12-23T22:09:39.143Z,8.55
2022-12-23T22:12:06.152Z,7.80
2022-12-23T22:14:33.333Z,8.38
2022-12-23T22:17:00.610Z,9.45
2022-12-23T22:19:27.721Z,9.18
2022-12-23T22:21:54.999Z,9.07
2022-12-23T22:24:22.080Z,9.32
2022-12-23T22:26:49.002Z,9.07
2022-12-23T22:29:16.760Z,7.80
2022-12-23T22:31:55.262Z,8.55
2022-12-23T22:34:33.402Z,6.97
2022-12-23T22:37:09.089Z,7.18
2022-12-23T22:39:36.205Z,3.30
2022-12-23T22:42:03.227Z,1.80
2022-12-23T22:44:30.309Z,0.90
2022-12-23T22:46:57.404Z,0.57
2022-12-23T22:49:25.150Z,0.70
2022-12-23T22:51:52.167Z,0.80
2022-12-23T22:54:19.214Z,0.60
2022-12-23T22:56:46.406Z,0.60
2022-12-23T22:59:22.861Z,0.80
2022-12-23T23:01:51.688Z,0.77
2022-12-23T23:04:31.331Z,1.02
2022-12-23T23:07:00.435Z,0.85
2022-12-23T23:09:38.586Z,0.70
2022-12-23T23:12:33.717Z,0.50
2022-12-23T23:15:03.292Z,0.57
2022-12-23T23:23:50.601Z,0.77
2022-12-23T23:26:54.535Z,0.70
2022-12-23T23:29:34.635Z,1.20
2022-12-23T23:32:06.458Z,1.00
2022-12-23T23:34:42.603Z,0.93
2022-12-23T23:37:20.594Z,1.25
2022-12-23T23:39:51.711Z,0.95
2022-12-23T23:42:24.788Z,1.05
2022-12-23T23:44:56.347Z,1.20
2022-12-23T23:47:39.989Z,0.68
2022-12-23T23:50:08.116Z,1.10
2022-12-23T23:52:35.380Z,0.98
2022-12-23T23:55:02.757Z,1.40
2022-12-23T23:57:30.155Z,0.90
